Time;durP1;ratioP1;P1;durP2;ratioP2;P2;SDS_P1;SDS_P2;PMS_P1;PMS_P2;Temp;Humidity;BMP_temperature;BMP_pressure;BME280_temperature;BME280_humidity;BME280_pressure;Samples;Min_cycle;Max_cycle;Signal;HPM_P1;HPM_P2
2021/04/01 00:00:33;;;;;;;7.15;5.20;;;22.20;98.50;;;;;;5074207;28;20041;-66
2021/04/01 00:02:59;;;;;;;8.55;5.00;;;22.20;98.50;;;;;;5075028;28;20021;-66
2021/04/01 00:05:27;;;;;;;8.15;5.13;;;22.10;98.70;;;;;;5075050;28;20019;-65
2021/04/01 00:07:53;;;;;;;6.57;4.75;;;22.20;98.90;;;;;;5074067;28;20055;-65
2021/04/01 00:10:24;;;;;;;7.35;5.22;;;22.20;99.30;;;;;;5073350;28;20086;-65
2021/04/01 00:12:50;;;;;;;8.75;4.93;;;22.20;99.90;;;;;;5072818;28;20520;-64
2021/04/01 00:15:16;;;;;;;6.97;5.03;;;22.20;99.90;;;;;;5074511;28;20469;-65
2021/04/01 00:17:43;;;;;;;7.70;5.20;;;22.20;99.90;;;;;;5074114;28;20481;-65
2021/04/01 00:20:12;;;;;;;9.85;5.57;;;22.20;99.90;;;;;;5074067;28;20031;-65
2021/04/01 00:22:38;;;;;;;7.78;5.32;;;22.20;99.90;;;;;;5073903;28;20039;-65
2021/04/01 00:25:05;;;;;;;7.93;4.97;;;22.20;99.90;;;;;;5074086;28;20020;-66
2021/04/01 00:27:31;;;;;;;8.75;5.25;;;22.10;99.90;;;;;;5073749;28;20124;-65
2021/04/01 00:29:57;;;;;;;9.20;5.55;;;22.10;99.90;;;;;;5074588;28;20104;-65
2021/04/01 00:32:22;;;;;;;7.57;4.97;;;22.10;99.90;;;;;;5073894;28;20032;-64
2021/04/01 00:34:48;;;;;;;6.53;4.97;;;22.10;99.90;;;;;;5073964;28;20025;-64
2021/04/01 00:37:14;;;;;;;7.32;4.97;;;22.10;99.90;;;;;;5073875;28;20055;-65
2021/04/01 00:39:39;;;;;;;8.40;4.95;;;22.10;99.90;;;;;;5073279;28;20032;-66
2021/04/01 00:42:06;;;;;;;9.70;5.40;;;22.10;99.90;;;;;;5073990;28;20361;-65
2021/04/01 00:44:33;;;;;;;9.90;5.55;;;22.10;99.90;;;;;;5072814;28;20036;-64
2021/04/01 00:46:59;;;;;;;10.23;5.25;;;22.10;99.90;;;;;;5074293;28;20035;-66
2021/04/01 00:49:25;;;;;;;8.27;4.97;;;22.10;99.90;;;;;;5073657;28;20379;-65
2021/04/01 00:51:50;;;;;;;8.18;5.20;;;22.10;99.90;;;;;;5073206;28;20468;-66
2021/04/01 00:54:16;;;;;;;11.30;5.53;;;22.10;99.90;;;;;;5073482;28;20087;-66
2021/04/01 00:56:42;;;;;;;8.13;5.20;;;22.10;99.90;;;;;;5073820;28;20020;-66
2021/04/01 00:59:08;;;;;;;8.32;5.00;;;22.10;99.90;;;;;;5073379;28;20476;-66
2021/04/01 01:04:04;;;;;;;9.82;5.45;;;22.10;99.90;;;;;;5073687;28;20029;-66
2021/04/01 01:06:29;;;;;;;11.73;5.10;;;22.00;99.90;;;;;;5073796;28;20099;-66
2021/04/01 01:08:55;;;;;;;8.43;5.35;;;22.00;99.90;;;;;;5072388;28;20091;-65
2021/04/01 01:11:21;;;;;;;6.70;4.63;;;22.00;99.90;;;;;;5072904;28;20039;-65
2021/04/01 01:13:47;;;;;;;8.52;5.55;;;22.00;99.90;;;;;;5071631;28;20033;-66
2021/04/01 01:16:12;;;;;;;7.72;5.32;;;22.00;99.90;;;;;;5073410;28;20078;-66
2021/04/01 01:18:39;;;;;;;8.88;5.55;;;22.00;99.90;;;;;;5072775;28;20024;-66
2021/04/01 01:21:07;;;;;;;8.30;5.15;;;22.00;99.90;;;;;;5073158;28;20078;-66
2021/04/01 01:23:33;;;;;;;10.88;5.47;;;22.00;99.90;;;;;;5073212;28;20507;-66
2021/04/01 01:25:59;;;;;;;8.30;5.20;;;21.90;99.90;;;;;;5073169;28;20052;-64
2021/04/01 01:28:25;;;;;;;8.18;5.22;;;22.00;99.90;;;;;;5073122;28;20032;-66
2021/04/01 01:30:52;;;;;;;10.80;5.88;;;22.00;99.90;;;;;;5072406;28;20433;-65
2021/04/01 01:33:23;;;;;;;9.00;5.57;;;22.00;99.90;;;;;;5072920;28;20103;-65
2021/04/01 01:35:52;;;;;;;8.07;5.65;;;22.00;99.90;;;;;;5072623;28;20451;-65
2021/04/01 01:38:18;;;;;;;10.82;5.75;;;21.90;99.90;;;;;;5072664;28;20549;-66
2021/04/01 01:40:44;;;;;;;9.95;5.32;;;21.90;99.90;;;;;;5072185;28;20173;-65
2021/04/01 01:43:13;;;;;;;10.60;5.25;;;21.90;99.90;;;;;;5072893;28;20024;-65
2021/04/01 01:45:40;;;;;;;9.18;5.15;;;21.90;99.90;;;;;;5072484;28;20020;-66
2021/04/01 01:48:07;;;;;;;8.27;5.25;;;21.90;99.90;;;;;;5072366;28;20025;-66
2021/04/01 01:50:35;;;;;;;8.23;5.00;;;21.80;99.90;;;;;;5072832;28;20147;-65
2021/04/01 01:53:01;;;;;;;9.85;5.57;;;21.80;99.90;;;;;;5072398;28;20016;-65
2021/04/01 01:55:28;;;;;;;8.57;5.55;;;21.80;99.90;;;;;;5071832;28;20042;-64
2021/04/01 01:57:54;;;;;;;10.73;5.30;;;21.80;99.90;;;;;;5071479;28;20509;-65
2021/04/01 02:00:33;;;;;;;8.57;5.70;;;21.80;99.90;;;;;;5071449;28;20114;-65
2021/04/01 02:03:05;;;;;;;9.63;5.30;;;21.80;99.90;;;;;;5071944;28;20093;-65
2021/04/01 02:05:33;;;;;;;10.57;5.60;;;21.80;99.90;;;;;;5072297;28;20032;-65
2021/04/01 02:08:00;;;;;;;11.07;5.80;;;21.80;99.90;;;;;;5072142;28;20036;-65
2021/04/01 02:10:30;;;;;;;10.38;5.78;;;21.80;99.90;;;;;;5072131;28;20427;-64
2021/04/01 02:12:57;;;;;;;7.85;5.93;;;21.80;99.90;;;;;;5072290;28;20468;-66
2021/04/01 02:15:28;;;;;;;9.90;6.10;;;21.80;99.90;;;;;;5070541;28;20085;-66
2021/04/01 02:18:11;;;;;;;12.35;7.22;;;21.70;99.90;;;;;;5072027;28;20029;-67
2021/04/01 02:20:42;;;;;;;11.50;6.78;;;21.80;99.90;;;;;;5072263;28;20068;-67
2021/04/01 02:23:11;;;;;;;11.82;7.25;;;21.70;99.90;;;;;;5072196;28;20064;-66
2021/04/01 02:25:38;;;;;;;12.82;6.90;;;21.80;99.90;;;;;;5072362;28;20457;-67
2021/04/01 02:28:05;;;;;;;9.68;6.45;;;21.70;99.90;;;;;;5071789;28;20031;-67
2021/04/01 02:30:32;;;;;;;13.50;7.05;;;21.70;99.90;;;;;;5071909;28;20035;-67
2021/04/01 02:32:58;;;;;;;10.25;6.18;;;21.70;99.90;;;;;;5071958;28;20035;-67
2021/04/01 02:35:25;;;;;;;12.65;6.95;;;21.70;99.90;;;;;;5071168;28;20025;-67
2021/04/01 02:37:50;;;;;;;11.75;6.75;;;21.70;99.90;;;;;;5071933;28;20052;-66
2021/04/01 02:40:17;;;;;;;12.27;6.75;;;21.70;99.90;;;;;;5071689;28;20544;-66
2021/04/01 02:42:43;;;;;;;11.43;7.35;;;21.70;99.90;;;;;;5072017;28;20043;-66
2021/04/01 02:45:10;;;;;;;10.05;6.28;;;21.70;99.90;;;;;;5071644;28;20024;-66
2021/04/01 02:47:36;;;;;;;12.73;6.40;;;21.70;99.90;;;;;;5072032;28;20028;-66
2021/04/01 02:50:02;;;;;;;9.50;6.63;;;21.70;99.90;;;;;;5071478;28;20040;-65
2021/04/01 02:52:28;;;;;;;12.23;6.00;;;21.60;99.90;;;;;;5071117;28;20384;-65
2021/04/01 02:54:53;;;;;;;9.65;6.40;;;21.60;99.90;;;;;;5071304;28;20024;-66
2021/04/01 02:57:19;;;;;;;14.80;6.57;;;21.60;99.90;;;;;;5071280;28;20020;-66
2021/04/01 02:59:45;;;;;;;10.80;6.53;;;21.60;99.90;;;;;;5055840;28;20158;-67
2021/04/01 03:02:12;;;;;;;12.65;6.43;;;21.60;99.90;;;;;;5071605;28;20106;-66
2021/04/01 03:04:38;;;;;;;10.73;6.28;;;21.60;99.90;;;;;;5071548;28;20350;-66
2021/04/01 03:07:04;;;;;;;10.35;6.53;;;21.50;99.90;;;;;;5072565;28;20113;-65
2021/04/01 03:09:30;;;;;;;9.18;6.47;;;21.60;99.90;;;;;;5075219;28;20458;-65
2021/04/01 03:11:55;;;;;;;11.32;6.63;;;21.50;99.90;;;;;;5074740;28;20052;-65
2021/04/01 03:14:21;;;;;;;10.25;6.30;;;21.50;99.90;;;;;;5075687;28;20024;-65
2021/04/01 03:16:47;;;;;;;13.43;6.25;;;21.50;99.90;;;;;;5075754;28;20025;-65
2021/04/01 03:19:13;;;;;;;10.95;6.90;;;21.50;99.90;;;;;;5075367;28;20035;-65
2021/04/01 03:21:38;;;;;;;10.80;6.95;;;21.50;99.90;;;;;;5075784;28;20036;-66
2021/04/01 03:24:04;;;;;;;11.10;6.45;;;21.50;99.90;;;;;;5074924;28;20024;-66
2021/04/01 03:26:30;;;;;;;11.13;6.80;;;21.50;99.90;;;;;;5075432;28;20025;-65
2021/04/01 03:28:56;;;;;;;9.55;6.18;;;21.50;99.90;;;;;;5075057;28;20039;-65
2021/04/01 03:31:22;;;;;;;11.02;6.85;;;21.40;99.90;;;;;;5074930;28;20040;-65
2021/04/01 03:33:48;;;;;;;12.35;6.80;;;21.40;99.90;;;;;;5074660;28;20039;-65
2021/04/01 03:36:14;;;;;;;10.45;6.75;;;21.40;99.90;;;;;;5074951;28;20059;-64
2021/04/01 03:38:43;;;;;;;9.38;6.13;;;21.40;99.90;;;;;;5074721;28;20035;-65
2021/04/01 03:41:09;;;;;;;12.25;6.60;;;21.40;99.90;;;;;;5075046;28;20029;-65
2021/04/01 03:43:35;;;;;;;10.77;6.20;;;21.40;99.90;;;;;;5090778;28;20384;-64
2021/04/01 03:46:00;;;;;;;9.57;6.40;;;21.40;99.90;;;;;;5075097;28;20020;-64
2021/04/01 03:48:26;;;;;;;11.30;6.95;;;21.30;99.90;;;;;;5075107;28;20051;-66
2021/04/01 03:50:52;;;;;;;12.27;6.75;;;21.30;99.90;;;;;;5074569;28;20135;-65
2021/04/01 03:53:17;;;;;;;12.38;6.80;;;21.40;99.90;;;;;;5074473;28;20021;-65
2021/04/01 03:55:44;;;;;;;10.27;6.35;;;21.30;99.90;;;;;;5074911;28;20059;-65
2021/04/01 04:06:43;;;;;;;12.10;6.78;;;21.30;99.90;;;;;;5074793;28;20063;-65
2021/04/01 04:12:05;;;;;;;9.82;6.32;;;21.30;99.90;;;;;;5074899;28;20031;-65
2021/04/01 04:14:35;;;;;;;11.85;6.57;;;21.20;99.90;;;;;;5073989;28;20027;-67
2021/04/01 04:17:00;;;;;;;9.90;6.45;;;21.20;99.90;;;;;;5074550;28;20029;-65
2021/04/01 04:19:26;;;;;;;10.85;6.90;;;21.20;99.90;;;;;;5073808;28;20393;-67
2021/04/01 04:21:51;;;;;;;11.90;6.93;;;21.20;99.90;;;;;;5074174;28;20028;-66
2021/04/01 04:24:17;;;;;;;10.18;6.93;;;21.20;99.90;;;;;;5074164;28;20468;-66
2021/04/01 04:26:43;;;;;;;10.45;6.60;;;21.20;99.90;;;;;;5074295;28;20040;-66
2021/04/01 04:29:08;;;;;;;13.68;7.28;;;21.10;99.90;;;;;;5073809;28;20064;-66
2021/04/01 04:31:34;;;;;;;11.18;6.97;;;21.10;99.90;;;;;;5073906;28;20480;-66
2021/04/01 04:34:00;;;;;;;11.38;7.45;;;21.10;99.90;;;;;;5073477;28;20062;-66
2021/04/01 04:36:25;;;;;;;11.90;7.22;;;21.10;99.90;;;;;;5073965;28;20123;-65
2021/04/01 04:38:51;;;;;;;13.32;6.65;;;21.10;99.90;;;;;;5074201;28;20055;-66
2021/04/01 04:41:16;;;;;;;13.30;7.45;;;21.10;99.90;;;;;;5073593;28;20036;-66
2021/04/01 04:43:42;;;;;;;11.70;7.95;;;21.10;99.90;;;;;;5074426;28;20381;-66
2021/04/01 04:46:08;;;;;;;14.88;7.65;;;21.10;99.90;;;;;;5074070;28;20380;-66
2021/04/01 04:48:33;;;;;;;11.38;7.30;;;21.10;99.90;;;;;;5074070;28;20031;-66
2021/04/01 04:50:59;;;;;;;13.05;7.10;;;21.10;99.90;;;;;;5089092;28;20492;-65
2021/04/01 04:53:26;;;;;;;12.05;7.30;;;21.00;99.90;;;;;;5073808;28;20021;-65
2021/04/01 04:56:04;;;;;;;12.70;7.40;;;21.10;99.90;;;;;;5073394;28;20583;-66
2021/04/01 05:09:07;;;;;;;;;;;21.00;99.90;;;;;;5074105;28;20027;-65
2021/04/01 05:11:33;;;;;;;11.60;7.75;;;21.00;99.90;;;;;;5073640;28;19905;-65
2021/04/01 05:14:00;;;;;;;15.35;8.65;;;21.00;99.90;;;;;;5073259;28;20394;-64
2021/04/01 05:16:25;;;;;;;14.20;8.38;;;21.00;99.90;;;;;;5073435;28;20124;-64
2021/04/01 05:18:51;;;;;;;15.32;8.38;;;21.00;99.90;;;;;;5073128;28;20438;-64
2021/04/01 05:21:20;;;;;;;12.80;7.72;;;20.90;99.90;;;;;;5072807;28;20072;-65
2021/04/01 05:23:49;;;;;;;13.68;7.60;;;20.90;99.90;;;;;;5073425;28;20051;-66
2021/04/01 05:29:01;;;;;;;14.93;8.43;;;21.00;99.90;;;;;;5072922;28;20028;-65
2021/04/01 05:31:29;;;;;;;13.90;8.07;;;20.90;99.90;;;;;;5071977;28;20029;-65
2021/04/01 05:33:56;;;;;;;13.65;7.80;;;20.90;99.90;;;;;;5072835;28;20070;-65
2021/04/01 05:36:23;;;;;;;14.13;8.20;;;20.90;99.90;;;;;;5072298;28;20032;-65
2021/04/01 05:38:52;;;;;;;13.55;8.05;;;20.90;99.90;;;;;;5073056;28;20037;-66
2021/04/01 05:41:20;;;;;;;12.07;8.02;;;20.90;99.90;;;;;;5073072;28;20377;-65
2021/04/01 05:43:52;;;;;;;15.25;8.20;;;20.80;99.90;;;;;;5073100;28;20096;-65
2021/04/01 05:46:28;;;;;;;15.70;8.88;;;20.80;99.90;;;;;;5072050;28;20035;-65
2021/04/01 06:05:05;;;;;;;37.22;16.98;;;20.00;98.30;;;;;;5072885;28;20032;-67
2021/04/01 06:07:39;;;;;;;36.30;16.35;;;20.00;98.70;;;;;;5072014;28;20028;-67
2021/04/01 06:10:05;;;;;;;;;;;20.10;98.80;;;;;;5072934;28;20031;-67
2021/04/01 06:12:32;;;;;;;34.53;15.38;;;20.20;98.80;;;;;;5071926;28;20010;-68
2021/04/01 06:15:03;;;;;;;31.27;14.73;;;20.30;98.40;;;;;;5072344;28;20024;-68
2021/04/01 06:17:30;;;;;;;29.25;14.73;;;20.30;98.20;;;;;;5071958;28;20392;-68
2021/04/01 06:20:05;;;;;;;27.85;13.30;;;20.30;97.90;;;;;;5071324;28;20472;-65
2021/04/01 06:22:31;;;;;;;23.65;12.27;;;20.30;98.60;;;;;;5072206;28;20063;-64
2021/04/01 06:24:57;;;;;;;23.35;11.98;;;20.20;98.00;;;;;;5071809;28;20476;-65
2021/04/01 06:27:32;;;;;;;21.38;10.20;;;20.20;98.20;;;;;;5071764;28;20102;-65
2021/04/01 06:32:38;;;;;;;20.80;11.23;;;20.10;97.70;;;;;;5071827;28;20072;-66
2021/04/01 06:40:49;;;;;;;17.65;9.57;;;20.00;97.30;;;;;;5072111;28;20020;-64
2021/04/01 06:43:17;;;;;;;21.02;9.93;;;20.00;97.30;;;;;;5071723;28;20028;-63
2021/04/01 06:46:08;;;;;;;18.13;9.90;;;20.00;97.30;;;;;;5071541;28;20021;-62
2021/04/01 06:59:45;;;;;;;15.13;8.40;;;20.00;97.30;;;;;;5071247;28;20059;-65
2021/04/01 07:04:42;;;;;;;14.60;8.38;;;20.00;97.30;;;;;;5070663;28;20012;-65
2021/04/01 07:07:18;;;;;;;17.27;8.73;;;20.00;97.20;;;;;;5070982;28;20032;-65
2021/04/01 07:12:35;;;;;;;13.23;7.85;;;20.00;97.00;;;;;;5067901;28;20017;-64
2021/04/01 07:15:18;;;;;;;15.55;8.15;;;20.00;97.00;;;;;;5071306;28;20040;-68
2021/04/01 07:17:50;;;;;;;14.55;7.90;;;20.00;96.90;;;;;;5060067;28;20032;-62
2021/04/01 07:32:36;;;;;;;13.30;7.45;;;20.20;97.00;;;;;;5071756;28;20549;-67
2021/04/01 07:48:24;;;;;;;14.73;8.48;;;20.30;96.90;;;;;;5071757;28;20384;-62
2021/04/01 07:50:49;;;;;;;14.75;9.27;;;20.30;96.70;;;;;;5070930;28;20040;-63
2021/04/01 07:53:25;;;;;;;13.20;8.18;;;20.30;96.50;;;;;;5071272;28;20374;-63
2021/04/01 08:01:32;;;;;;;16.48;8.82;;;20.40;96.60;;;;;;5074349;28;20029;-65
2021/04/01 08:04:01;;;;;;;15.63;9.38;;;20.40;96.70;;;;;;5074243;28;20531;-63
2021/04/01 08:06:28;;;;;;;14.43;9.75;;;20.50;96.40;;;;;;5073230;28;20028;-61
2021/04/01 08:09:05;;;;;;;15.00;10.48;;;20.50;96.40;;;;;;5074455;28;20038;-63
2021/04/01 08:11:45;;;;;;;15.38;9.57;;;20.50;96.20;;;;;;5074791;28;20104;-63
2021/04/01 08:14:31;;;;;;;15.68;9.85;;;20.60;96.30;;;;;;5074383;28;20021;-64
2021/04/01 08:19:27;;;;;;;16.13;10.88;;;20.60;96.20;;;;;;5074779;28;20376;-62
2021/04/01 08:21:55;;;;;;;16.10;10.48;;;20.70;96.20;;;;;;5074487;28;20500;-62
2021/04/01 08:24:27;;;;;;;14.95;9.75;;;20.70;96.00;;;;;;5074336;28;20021;-65
2021/04/01 08:34:49;;;;;;;15.85;9.65;;;20.80;96.50;;;;;;5072992;28;20420;-62
2021/04/01 08:37:16;;;;;;;13.77;9.75;;;20.80;96.20;;;;;;5073967;28;20024;-62
2021/04/01 08:39:44;;;;;;;16.30;10.65;;;20.90;96.00;;;;;;5074086;28;20028;-61
2021/04/01 08:42:33;;;;;;;15.30;10.00;;;20.90;96.80;;;;;;5074118;28;20036;-62
2021/04/01 08:45:31;;;;;;;16.80;9.43;;;21.00;96.60;;;;;;5073536;28;20028;-64
2021/04/01 08:48:15;;;;;;;15.77;9.77;;;21.10;96.70;;;;;;5074242;28;20032;-64
2021/04/01 08:51:05;;;;;;;14.63;9.65;;;21.20;96.90;;;;;;5073742;28;20035;-64
2021/04/01 08:53:49;;;;;;;13.90;9.18;;;21.20;97.10;;;;;;5074074;28;20021;-63
2021/04/01 08:56:23;;;;;;;13.07;8.20;;;21.40;97.10;;;;;;5073912;28;20048;-63
2021/04/01 08:59:04;;;;;;;13.88;8.77;;;21.40;97.40;;;;;;5073281;28;20037;-63
2021/04/01 09:01:36;;;;;;;12.20;8.52;;;21.50;97.30;;;;;;5068882;28;20043;-61
2021/04/01 09:04:02;;;;;;;11.77;8.15;;;21.50;97.60;;;;;;5073726;28;20081;-63
2021/04/01 09:06:34;;;;;;;11.25;7.55;;;21.60;97.70;;;;;;5073804;28;20096;-64
2021/04/01 09:09:22;;;;;;;10.85;7.95;;;21.60;97.90;;;;;;5073483;28;20384;-63
2021/04/01 09:12:04;;;;;;;11.80;7.82;;;21.70;98.10;;;;;;5061614;28;20028;-63
2021/04/01 09:14:32;;;;;;;10.80;7.68;;;21.70;98.80;;;;;;5073198;28;20089;-63
2021/04/01 09:17:09;;;;;;;10.98;7.20;;;21.80;98.30;;;;;;5073530;28;20544;-64
2021/04/01 09:19:37;;;;;;;9.95;7.25;;;21.80;98.60;;;;;;5072788;28;20070;-63
2021/04/01 09:22:13;;;;;;;10.30;7.13;;;21.90;98.60;;;;;;5073339;28;20033;-63
2021/04/01 09:24:39;;;;;;;10.70;7.30;;;21.90;98.50;;;;;;5073074;28;20023;-63
2021/04/01 09:27:11;;;;;;;10.23;7.30;;;22.00;98.60;;;;;;5073028;28;20101;-64
2021/04/01 09:29:41;;;;;;;9.40;6.88;;;22.00;98.70;;;;;;5071201;28;20388;-63
2021/04/01 09:32:08;;;;;;;10.88;7.03;;;22.10;99.20;;;;;;5073299;28;20056;-64
2021/04/01 09:34:36;;;;;;;10.32;7.05;;;22.10;99.00;;;;;;5072588;28;20478;-63
2021/04/01 09:37:12;;;;;;;9.30;7.20;;;22.20;99.10;;;;;;5072831;28;20101;-63
2021/04/01 09:39:38;;;;;;;11.15;7.35;;;22.20;99.00;;;;;;5072012;28;20116;-63
2021/04/01 09:42:15;;;;;;;9.43;6.75;;;22.30;99.30;;;;;;5072392;28;20115;-62
2021/04/01 09:44:52;;;;;;;10.32;6.68;;;22.30;99.30;;;;;;5072756;28;20025;-62
2021/04/01 09:47:23;;;;;;;9.38;6.65;;;22.40;99.30;;;;;;5072854;28;20029;-62
2021/04/01 09:50:03;;;;;;;7.85;6.20;;;22.40;99.30;;;;;;5072497;28;20103;-63
2021/04/01 09:52:29;;;;;;;7.82;6.13;;;22.50;99.40;;;;;;5072721;28;20034;-63
2021/04/01 09:55:01;;;;;;;10.00;6.68;;;22.50;99.40;;;;;;5072192;28;20480;-62
2021/04/01 09:57:39;;;;;;;9.38;5.45;;;22.60;99.40;;;;;;5072760;28;20075;-63
2021/04/01 10:00:14;;;;;;;11.13;6.05;;;22.60;99.60;;;;;;5072287;28;20044;-63
2021/04/01 10:02:43;;;;;;;8.88;5.97;;;22.70;99.60;;;;;;5072422;28;20071;-63
2021/04/01 10:05:11;;;;;;;8.82;5.85;;;22.70;99.70;;;;;;5072151;28;20051;-63
2021/04/01 10:07:49;;;;;;;13.93;9.05;;;22.70;99.70;;;;;;5072165;28;20028;-63
2021/04/01 10:10:14;;;;;;;15.35;9.05;;;22.60;95.30;;;;;;5068823;28;20107;-63
2021/04/01 10:12:43;;;;;;;15.93;9.65;;;22.40;94.80;;;;;;5071155;28;20465;-63
2021/04/01 10:15:12;;;;;;;14.15;8.90;;;22.30;94.50;;;;;;5069233;28;20426;-64
2021/04/01 10:17:39;;;;;;;13.95;8.55;;;22.20;95.00;;;;;;5094254;28;20113;-64
2021/04/01 10:20:07;;;;;;;14.13;9.32;;;22.20;95.10;;;;;;5071038;28;20028;-64
2021/04/01 10:22:39;;;;;;;13.40;9.05;;;22.10;95.20;;;;;;5072321;28;20037;-64
2021/04/01 10:27:44;;;;;;;12.68;7.70;;;22.10;95.30;;;;;;5065059;28;20056;-63
2021/04/01 10:30:11;;;;;;;11.63;7.97;;;22.30;95.90;;;;;;5068914;28;20031;-64
2021/04/01 10:32:49;;;;;;;12.02;7.60;;;22.40;95.90;;;;;;5069837;28;20060;-65
2021/04/01 10:35:20;;;;;;;12.68;7.00;;;22.50;95.90;;;;;;5064924;28;20089;-63
2021/04/01 10:37:49;;;;;;;10.98;7.22;;;22.60;95.90;;;;;;5067269;28;20025;-63
2021/04/01 10:40:17;;;;;;;11.32;7.50;;;22.70;96.20;;;;;;5067959;28;20032;-64
2021/04/01 10:42:46;;;;;;;11.80;7.13;;;22.80;96.40;;;;;;5086353;28;20045;-63
2021/04/01 10:45:17;;;;;;;10.77;6.80;;;22.80;96.30;;;;;;5069771;28;20162;-64
2021/04/01 10:47:48;;;;;;;10.75;6.82;;;22.90;96.40;;;;;;5067142;28;20111;-63
2021/04/01 10:50:14;;;;;;;11.05;7.40;;;22.90;96.50;;;;;;5069541;28;20021;-62
2021/04/01 10:52:40;;;;;;;10.02;7.30;;;23.00;96.50;;;;;;5069388;28;20020;-62
2021/04/01 10:55:06;;;;;;;10.70;6.75;;;23.10;96.50;;;;;;5070003;28;20025;-63
2021/04/01 10:57:33;;;;;;;11.80;7.43;;;23.10;96.40;;;;;;5071135;28;20029;-63
2021/04/01 11:00:03;;;;;;;9.63;7.13;;;23.10;96.20;;;;;;5086714;28;20041;-63
2021/04/01 11:02:38;;;;;;;11.40;7.32;;;23.20;96.30;;;;;;5070328;28;20488;-63
2021/04/01 11:05:15;;;;;;;11.60;7.63;;;23.20;96.40;;;;;;5070736;28;20035;-63
2021/04/01 11:07:45;;;;;;;11.75;7.28;;;23.20;96.30;;;;;;5070879;28;20028;-63
2021/04/01 11:10:19;;;;;;;9.82;6.72;;;23.20;96.00;;;;;;5071026;28;20025;-63
2021/04/01 11:12:50;;;;;;;10.38;7.55;;;23.30;96.00;;;;;;5070844;28;20016;-64
2021/04/01 11:15:17;;;;;;;10.27;6.47;;;23.30;96.00;;;;;;5071160;28;20036;-63
2021/04/01 11:17:49;;;;;;;10.75;6.78;;;23.40;96.00;;;;;;5069944;28;20031;-62
2021/04/01 11:20:17;;;;;;;11.18;7.40;;;23.40;95.80;;;;;;5070343;28;20029;-63
2021/04/01 11:23:01;;;;;;;10.50;7.32;;;23.40;95.70;;;;;;5069430;28;20881;-62
2021/04/01 11:25:27;;;;;;;8.98;6.63;;;23.40;95.50;;;;;;5067879;28;20036;-63
2021/04/01 11:27:54;;;;;;;12.55;6.50;;;23.50;95.80;;;;;;5071643;28;20032;-63
2021/04/01 11:30:20;;;;;;;11.45;6.90;;;23.50;95.50;;;;;;5073449;28;20047;-63
2021/04/01 11:32:54;;;;;;;11.48;8.23;;;23.40;94.80;;;;;;5074405;28;20068;-62
2021/04/01 11:35:23;;;;;;;13.75;8.93;;;23.30;94.40;;;;;;5073361;28;20075;-63
2021/04/01 11:37:52;;;;;;;16.35;9.75;;;23.30;94.40;;;;;;5073831;28;20040;-63
2021/04/01 11:40:19;;;;;;;13.35;9.40;;;23.20;94.40;;;;;;5072521;28;20021;-63
2021/04/01 11:42:55;;;;;;;14.35;8.73;;;23.20;94.10;;;;;;5074669;28;20036;-62
2021/04/01 11:45:37;;;;;;;16.40;10.23;;;23.10;94.30;;;;;;5075287;28;20020;-62
2021/04/01 11:48:05;;;;;;;13.52;9.40;;;23.10;94.10;;;;;;5075363;28;20082;-62
2021/04/01 11:50:31;;;;;;;12.85;9.38;;;23.00;94.10;;;;;;5074353;28;20043;-62
2021/04/01 11:52:59;;;;;;;14.07;9.93;;;23.00;94.20;;;;;;5072891;28;20024;-62
2021/04/01 11:55:25;;;;;;;15.07;9.90;;;23.00;94.20;;;;;;5073721;28;20055;-62
2021/04/01 11:57:51;;;;;;;14.27;9.95;;;22.90;94.20;;;;;;5073470;28;20384;-62
2021/04/01 12:05:24;;;;;;;15.27;10.20;;;22.90;94.30;;;;;;5072651;28;20472;-63
2021/04/01 12:07:50;;;;;;;15.40;10.18;;;22.90;94.30;;;;;;5074440;28;20321;-62
2021/04/01 12:10:16;;;;;;;15.02;10.02;;;22.90;94.30;;;;;;5073453;28;20020;-62
2021/04/01 12:12:42;;;;;;;15.68;10.65;;;22.90;94.40;;;;;;5073188;28;20017;-62
2021/04/01 12:15:09;;;;;;;15.20;10.23;;;22.90;94.40;;;;;;5073282;28;20028;-62
2021/04/01 12:17:40;;;;;;;16.02;11.07;;;22.90;94.40;;;;;;5073370;28;20052;-62
2021/04/01 12:20:14;;;;;;;16.40;10.38;;;22.90;94.40;;;;;;5073389;28;20056;-62
2021/04/01 12:22:42;;;;;;;14.60;10.82;;;22.90;94.40;;;;;;5071550;28;20035;-62
2021/04/01 12:25:19;;;;;;;18.02;11.40;;;22.90;94.40;;;;;;5074361;28;20021;-63
2021/04/01 12:27:53;;;;;;;16.33;10.35;;;22.90;94.40;;;;;;5074425;28;20024;-63
2021/04/01 12:30:33;;;;;;;13.27;9.05;;;22.90;94.50;;;;;;5074314;28;20035;-62
2021/04/01 12:33:10;;;;;;;14.32;9.13;;;23.10;94.80;;;;;;5074526;28;20024;-64
2021/04/01 12:35:36;;;;;;;14.75;9.30;;;23.30;95.40;;;;;;5074458;28;20055;-65
2021/04/01 12:38:05;;;;;;;12.93;8.80;;;23.50;95.70;;;;;;5074336;28;20025;-65
2021/04/01 12:40:40;;;;;;;13.02;8.73;;;23.60;95.80;;;;;;5073476;28;20052;-63
2021/04/01 12:43:07;;;;;;;13.95;8.88;;;23.70;95.80;;;;;;5074492;28;20388;-64
2021/04/01 12:45:34;;;;;;;13.20;8.07;;;23.80;96.00;;;;;;5074093;28;20472;-66
2021/04/01 12:48:07;;;;;;;13.10;8.80;;;23.90;96.20;;;;;;5073794;28;20033;-65
2021/04/01 12:50:35;;;;;;;12.35;8.02;;;23.90;96.10;;;;;;5072891;28;20063;-65
2021/04/01 12:53:03;;;;;;;11.48;7.82;;;24.00;96.10;;;;;;5073447;28;20464;-61
2021/04/01 12:55:38;;;;;;;11.95;8.52;;;24.10;96.40;;;;;;5073790;28;20029;-64
2021/04/01 12:58:08;;;;;;;11.45;7.80;;;24.10;96.20;;;;;;5074163;28;20024;-65
2021/04/01 13:01:19;;;;;;;13.13;8.57;;;24.20;96.50;;;;;;5073577;28;20032;-66
2021/04/01 13:03:22;;;;;;;14.20;8.90;;;24.20;96.60;;;;;;5073156;28;20040;-64
2021/04/01 13:05:53;;;;;;;12.07;8.65;;;24.30;96.50;;;;;;5073623;28;20440;-64
2021/04/01 13:11:11;;;;;;;13.68;9.07;;;24.40;96.00;;;;;;5060184;28;20048;-64
2021/04/01 13:13:37;;;;;;;12.30;8.70;;;24.50;96.50;;;;;;5053871;28;20554;-64
2021/04/01 13:16:03;;;;;;;13.75;8.68;;;24.50;96.50;;;;;;5070008;28;20039;-64
2021/04/01 13:18:28;;;;;;;13.68;9.07;;;24.50;96.10;;;;;;5073198;28;20052;-63
2021/04/01 13:20:54;;;;;;;11.75;8.25;;;24.60;96.00;;;;;;5072944;28;20026;-65
2021/04/01 13:24:04;;;;;;;13.35;9.15;;;24.70;96.40;;;;;;5073055;28;20054;-63
2021/04/01 13:26:13;;;;;;;13.52;8.70;;;24.70;95.90;;;;;;5067049;28;20032;-64
2021/04/01 13:28:42;;;;;;;12.32;8.70;;;24.80;95.80;;;;;;5072676;28;20386;-64
2021/04/01 13:31:15;;;;;;;14.63;8.35;;;24.80;96.00;;;;;;5073218;28;20136;-63
2021/04/01 13:33:55;;;;;;;12.13;8.63;;;24.80;96.00;;;;;;5072889;28;20033;-62
2021/04/01 13:36:30;;;;;;;14.18;8.57;;;24.90;96.10;;;;;;5072636;28;20059;-62
2021/04/01 13:38:56;;;;;;;12.45;8.15;;;24.90;96.00;;;;;;5072883;28;20020;-62
2021/04/01 13:41:31;;;;;;;13.23;7.93;;;25.00;96.00;;;;;;5072809;28;20064;-63
2021/04/01 13:43:57;;;;;;;13.45;7.63;;;25.10;96.30;;;;;;5072872;28;20032;-62
2021/04/01 13:46:23;;;;;;;11.90;7.00;;;25.10;96.00;;;;;;5072204;28;20098;-62
2021/04/01 13:48:51;;;;;;;12.32;7.22;;;25.10;95.90;;;;;;5072811;28;20492;-61
2021/04/01 13:51:21;;;;;;;14.05;8.43;;;25.20;96.00;;;;;;5071855;28;20036;-63
2021/04/01 13:56:25;;;;;;;10.23;6.72;;;25.20;96.10;;;;;;5072782;28;20025;-62
2021/04/01 14:09:43;;;;;;;15.38;6.38;;;25.40;95.90;;;;;;5072700;28;20035;-63
2021/04/01 14:12:10;;;;;;;10.60;6.03;;;25.40;95.90;;;;;;5071986;28;20456;-63
2021/04/01 14:14:36;;;;;;;10.18;6.07;;;25.40;95.70;;;;;;5072227;28;20035;-63
2021/04/01 14:17:04;;;;;;;8.38;5.72;;;25.40;95.60;;;;;;5072209;28;20036;-65
2021/04/01 14:19:30;;;;;;;9.55;5.55;;;25.40;95.70;;;;;;5072285;28;20483;-65
2021/04/01 14:22:01;;;;;;;13.45;6.97;;;25.40;96.00;;;;;;5072166;28;20037;-63
2021/04/01 14:24:40;;;;;;;15.43;6.88;;;25.30;94.10;;;;;;5071878;28;20470;-64
2021/04/01 14:29:56;;;;;;;14.55;6.75;;;24.60;94.10;;;;;;5072355;28;20070;-64
2021/04/01 14:32:26;;;;;;;12.38;7.28;;;24.40;94.30;;;;;;5072092;28;20025;-64
2021/04/01 14:34:56;;;;;;;10.80;6.68;;;24.40;94.40;;;;;;5072097;28;20024;-65
2021/04/01 14:37:29;;;;;;;12.48;6.78;;;24.30;94.40;;;;;;5072145;28;20028;-64
2021/04/01 14:39:56;;;;;;;11.65;6.88;;;24.30;94.50;;;;;;5071451;28;20540;-61
2021/04/01 14:42:36;;;;;;;11.40;6.13;;;24.20;94.50;;;;;;5071941;28;20043;-65
2021/04/01 14:45:05;;;;;;;12.30;6.80;;;24.20;94.50;;;;;;5071673;28;20021;-61
2021/04/01 14:47:31;;;;;;;13.15;6.65;;;24.20;94.50;;;;;;5104387;28;20447;-62
2021/04/01 14:49:57;;;;;;;13.15;6.68;;;24.20;94.50;;;;;;5071597;28;20035;-62
2021/04/01 14:52:25;;;;;;;13.70;7.00;;;24.20;94.50;;;;;;5071487;28;20089;-61
2021/04/01 14:54:54;;;;;;;11.00;6.18;;;24.20;94.50;;;;;;5071683;28;20063;-63
2021/04/01 14:57:21;;;;;;;11.57;6.05;;;24.10;94.50;;;;;;5071826;28;20036;-62
2021/04/01 14:59:48;;;;;;;10.75;6.60;;;24.10;94.50;;;;;;5071443;28;20045;-63
2021/04/01 15:02:15;;;;;;;12.75;6.68;;;24.20;94.50;;;;;;5071696;28;20041;-62
2021/04/01 15:04:41;;;;;;;12.02;6.85;;;24.10;94.50;;;;;;5072106;28;20067;-63